createdAt,value
2019-01-25T00:01:44.946Z,34.33
2019-01-25T00:04:14.777Z,35.73
2019-01-25T00:06:44.572Z,34.30
2019-01-25T00:09:14.397Z,36.58
2019-01-25T00:11:44.316Z,35.83
2019-01-25T00:14:14.168Z,35.92
2019-01-25T00:16:43.968Z,35.48
2019-01-25T00:19:13.804Z,36.83
2019-01-25T00:21:43.610Z,36.03
2019-01-25T00:24:13.521Z,36.60
2019-01-25T00:26:43.308Z,36.03
2019-01-25T00:29:13.122Z,37.50
2019-01-25T00:31:42.943Z,36.68
2019-01-25T00:34:38.460Z,36.38
2019-01-25T00:37:08.214Z,37.45
2019-01-25T00:39:38.131Z,37.17
2019-01-25T00:42:07.934Z,37.80
2019-01-25T00:44:37.721Z,38.95
2019-01-25T00:47:07.508Z,38.08
2019-01-25T00:49:37.424Z,38.73
2019-01-25T00:52:07.290Z,38.63
2019-01-25T00:54:37.078Z,38.67
2019-01-25T00:57:06.898Z,38.77
2019-01-25T00:59:36.673Z,39.10
2019-01-25T01:02:06.473Z,38.75
2019-01-25T01:04:36.280Z,37.78
2019-01-25T01:07:06.161Z,38.67
2019-01-25T01:09:36.676Z,38.73
2019-01-25T01:12:06.614Z,38.55
2019-01-25T01:14:36.481Z,38.53
2019-01-25T01:17:06.273Z,40.45
2019-01-25T01:19:37.073Z,40.98
2019-01-25T01:22:06.853Z,41.77
2019-01-25T01:24:36.633Z,39.42
2019-01-25T01:27:06.443Z,40.03
2019-01-25T01:29:36.233Z,39.00
2019-01-25T01:32:06.058Z,37.70
2019-01-25T01:34:35.858Z,34.38
2019-01-25T01:37:05.865Z,34.30
2019-01-25T01:39:35.709Z,34.92
2019-01-25T01:42:05.490Z,34.67
2019-01-25T01:44:35.310Z,33.65
2019-01-25T01:47:05.077Z,34.20
2019-01-25T01:49:34.864Z,33.90
2019-01-25T01:52:04.680Z,32.80
2019-01-25T01:54:34.450Z,33.30
2019-01-25T01:57:04.340Z,32.28
2019-01-25T01:59:34.094Z,33.25
2019-01-25T02:02:03.978Z,33.47
2019-01-25T02:04:33.806Z,35.08
2019-01-25T02:07:03.608Z,37.70
2019-01-25T02:09:33.382Z,37.67
2019-01-25T02:12:03.169Z,37.03
2019-01-25T02:14:32.970Z,37.90
2019-01-25T02:17:02.737Z,38.20
2019-01-25T02:19:32.626Z,38.40
2019-01-25T02:22:02.405Z,38.90
2019-01-25T02:24:32.293Z,38.93
2019-01-25T02:27:02.290Z,38.95
2019-01-25T02:29:32.185Z,39.80
2019-01-25T02:32:01.986Z,40.55
2019-01-25T02:34:31.794Z,39.17
2019-01-25T02:37:01.561Z,39.92
2019-01-25T02:39:31.356Z,40.83
2019-01-25T02:42:01.146Z,40.45
2019-01-25T02:44:30.944Z,38.58
2019-01-25T02:47:00.733Z,39.92
2019-01-25T02:49:30.612Z,40.12
2019-01-25T02:52:00.445Z,39.95
2019-01-25T02:54:30.217Z,39.35
2019-01-25T02:57:00.032Z,40.98
2019-01-25T02:59:29.828Z,40.95
2019-01-25T03:01:59.597Z,41.68
2019-01-25T03:04:29.427Z,41.70
2019-01-25T03:07:00.274Z,40.98
2019-01-25T03:09:30.077Z,42.85
2019-01-25T03:11:59.850Z,41.00
2019-01-25T03:14:29.633Z,41.63
2019-01-25T03:16:59.418Z,40.78
2019-01-25T03:19:29.315Z,41.55
2019-01-25T03:21:59.068Z,41.98
2019-01-25T03:24:28.860Z,42.17
2019-01-25T03:26:58.740Z,42.27
2019-01-25T03:29:28.595Z,42.35
2019-01-25T03:31:58.469Z,41.85
2019-01-25T03:34:28.310Z,43.20
2019-01-25T03:36:58.085Z,42.38
2019-01-25T03:39:27.903Z,41.77
2019-01-25T03:41:57.719Z,40.50
2019-01-25T03:44:27.498Z,42.85
2019-01-25T03:46:57.345Z,43.33
2019-01-25T03:49:27.149Z,44.70
2019-01-25T03:51:57.023Z,43.83
2019-01-25T03:54:26.776Z,42.88
2019-01-25T03:56:56.592Z,43.35
2019-01-25T03:59:26.371Z,41.70
2019-01-25T04:01:56.154Z,42.58
2019-01-25T04:04:25.947Z,43.40
2019-01-25T04:06:55.773Z,44.63
2019-01-25T04:09:25.696Z,42.97
2019-01-25T04:11:55.574Z,43.42
2019-01-25T04:14:25.366Z,42.23
2019-01-25T04:16:55.179Z,42.05
2019-01-25T04:19:25.029Z,42.48
2019-01-25T04:21:54.890Z,42.93
2019-01-25T04:24:24.666Z,43.30
2019-01-25T04:26:54.484Z,42.62
2019-01-25T04:29:24.281Z,42.08
2019-01-25T04:31:54.021Z,41.55
2019-01-25T04:34:23.825Z,43.90
2019-01-25T04:36:53.585Z,42.70
2019-01-25T04:39:23.398Z,44.27
2019-01-25T04:41:53.201Z,43.17
2019-01-25T04:44:22.973Z,42.93
2019-01-25T04:46:52.811Z,42.88
2019-01-25T04:49:22.562Z,42.90
2019-01-25T04:51:52.340Z,44.08
2019-01-25T04:54:22.149Z,43.35
2019-01-25T04:56:51.956Z,42.93
2019-01-25T04:59:26.293Z,44.18
2019-01-25T05:01:56.165Z,43.95
2019-01-25T05:04:27.590Z,43.45
2019-01-25T05:06:57.362Z,44.03
2019-01-25T05:09:29.709Z,44.42
2019-01-25T05:11:59.483Z,43.92
2019-01-25T05:14:30.970Z,43.25
2019-01-25T05:17:00.738Z,44.55
2019-01-25T05:19:33.999Z,43.63
2019-01-25T05:22:03.823Z,42.40
2019-01-25T05:24:33.644Z,44.85
2019-01-25T05:27:03.432Z,44.85
2019-01-25T05:29:57.462Z,44.38
2019-01-25T05:32:27.242Z,46.37
2019-01-25T05:34:57.036Z,43.80
2019-01-25T05:37:26.825Z,46.18
2019-01-25T05:39:56.610Z,43.73
2019-01-25T05:42:26.409Z,44.23
2019-01-25T05:44:56.255Z,45.70
2019-01-25T05:47:26.044Z,45.17
2019-01-25T05:49:55.951Z,45.67
2019-01-25T05:52:25.802Z,46.02
2019-01-25T05:54:56.570Z,44.80
2019-01-25T05:57:26.382Z,45.17
2019-01-25T05:59:56.170Z,46.48
2019-01-25T06:02:26.036Z,46.28
2019-01-25T06:04:55.844Z,45.60
2019-01-25T06:07:28.455Z,45.63
2019-01-25T06:10:01.590Z,45.77
2019-01-25T06:12:32.030Z,45.90
2019-01-25T06:15:02.247Z,46.40
2019-01-25T06:17:33.073Z,45.92
2019-01-25T06:20:02.972Z,46.83
2019-01-25T06:22:32.747Z,45.85
2019-01-25T06:25:02.529Z,46.05
2019-01-25T06:27:37.465Z,45.83
2019-01-25T06:30:12.279Z,46.55
2019-01-25T06:32:42.185Z,45.38
2019-01-25T06:35:12.072Z,46.15
2019-01-25T06:37:42.946Z,46.37
2019-01-25T06:40:12.810Z,46.33
2019-01-25T06:42:42.624Z,46.20
2019-01-25T06:45:12.562Z,45.55
2019-01-25T06:47:42.370Z,46.58
2019-01-25T06:50:12.330Z,47.20
2019-01-25T06:52:42.082Z,46.25
2019-01-25T06:55:12.957Z,46.92
2019-01-25T06:57:49.663Z,47.98
2019-01-25T07:00:21.924Z,46.80
2019-01-25T07:02:51.708Z,47.78
2019-01-25T07:05:21.510Z,48.43
2019-01-25T07:07:51.426Z,47.50
2019-01-25T07:10:21.422Z,47.80
2019-01-25T07:12:51.197Z,39.07
2019-01-25T07:15:22.855Z,48.05
2019-01-25T07:17:52.681Z,48.65
2019-01-25T07:20:22.475Z,48.92
2019-01-25T07:22:52.302Z,48.55
2019-01-25T07:25:22.129Z,49.10
2019-01-25T07:27:51.958Z,48.78
2019-01-25T07:30:21.762Z,47.38
2019-01-25T07:32:51.612Z,49.65
2019-01-25T07:35:21.464Z,48.52
2019-01-25T07:37:51.364Z,48.35
2019-01-25T07:40:21.240Z,49.80
2019-01-25T07:42:51.010Z,48.95
2019-01-25T07:45:20.806Z,49.10
2019-01-25T07:47:50.677Z,49.35
2019-01-25T07:50:20.516Z,48.78
2019-01-25T07:52:50.395Z,49.27
2019-01-25T07:55:20.261Z,50.45
2019-01-25T07:57:50.110Z,50.88
2019-01-25T08:00:20.005Z,51.50
2019-01-25T08:02:49.805Z,49.53
2019-01-25T08:05:19.606Z,51.08
2019-01-25T08:07:49.425Z,50.73
2019-01-25T08:10:19.284Z,50.33
2019-01-25T08:12:49.118Z,51.85
2019-01-25T08:15:19.776Z,50.37
2019-01-25T08:17:49.557Z,51.33
2019-01-25T08:20:19.518Z,50.30
2019-01-25T08:22:49.391Z,50.13
2019-01-25T08:25:19.203Z,50.58
2019-01-25T08:27:49.067Z,50.73
2019-01-25T08:30:20.036Z,52.23
2019-01-25T08:32:49.946Z,50.75
2019-01-25T08:35:20.053Z,51.90
2019-01-25T08:37:49.881Z,51.80
2019-01-25T08:40:19.788Z,51.33
2019-01-25T08:42:49.698Z,51.87
2019-01-25T08:45:19.657Z,51.70
2019-01-25T08:47:49.808Z,51.53
2019-01-25T08:50:21.817Z,50.50
2019-01-25T08:52:51.917Z,50.92
2019-01-25T08:55:21.823Z,51.58
2019-01-25T23:42:26.214Z,33.70
2019-01-25T23:44:56.024Z,30.10
2019-01-25T23:47:25.843Z,30.68
2019-01-25T23:49:55.772Z,30.02
2019-01-25T23:52:25.688Z,28.25
2019-01-25T23:55:24.175Z,27.93
2019-01-25T23:57:54.070Z,26.50
